Time;durP1;ratioP1;P1;durP2;ratioP2;P2;SDS_P1;SDS_P2;PMS_P1;PMS_P2;Temp;Humidity;BMP_temperature;BMP_pressure;BME280_temperature;BME280_humidity;BME280_pressure;Samples;Min_cycle;Max_cycle;Signal;HPM_P1;HPM_P2
2022/01/10 00:01:08;;;;;;;26.53;7.23;;;2.00;99.90;;;;;;4899592;29;20052;-89
2022/01/10 00:03:34;;;;;;;24.47;7.77;;;2.00;99.90;;;;;;4898414;29;20139;-88
2022/01/10 00:06:00;;;;;;;20.57;7.37;;;2.10;99.90;;;;;;4899776;29;20127;-89
2022/01/10 00:08:26;;;;;;;18.63;7.00;;;2.00;99.90;;;;;;4899462;29;20518;-89
2022/01/10 00:10:51;;;;;;;20.17;7.03;;;1.90;99.90;;;;;;4901193;29;20044;-88
2022/01/10 00:13:17;;;;;;;24.00;7.03;;;1.90;99.90;;;;;;4899856;29;20064;-89
2022/01/10 00:15:44;;;;;;;20.33;7.40;;;1.80;99.90;;;;;;4898526;29;20048;-88
2022/01/10 00:18:11;;;;;;;17.63;7.53;;;1.80;99.90;;;;;;4900209;29;20050;-89
2022/01/10 00:20:37;;;;;;;25.13;7.50;;;1.70;99.90;;;;;;4899265;29;20090;-89
2022/01/10 00:23:04;;;;;;;21.90;7.07;;;1.70;99.90;;;;;;4898813;29;20078;-89
2022/01/10 00:25:29;;;;;;;26.33;8.10;;;2.30;99.90;;;;;;4899280;29;20056;-89
2022/01/10 00:27:56;;;;;;;25.53;7.93;;;1.50;99.90;;;;;;4900124;29;20040;-89
2022/01/10 00:30:23;;;;;;;25.17;8.50;;;1.40;99.90;;;;;;4905716;29;20143;-89
2022/01/10 00:32:50;;;;;;;31.13;7.50;;;1.40;99.90;;;;;;4900695;29;20516;-90
2022/01/10 00:35:16;;;;;;;25.37;8.27;;;1.40;99.90;;;;;;4899295;29;20486;-89
2022/01/10 00:37:43;;;;;;;28.40;8.13;;;1.40;99.90;;;;;;4898525;29;20048;-89
2022/01/10 00:40:11;;;;;;;28.43;8.10;;;1.30;99.90;;;;;;4900377;29;20032;-88
2022/01/10 00:42:44;;;;;;;23.33;7.70;;;1.30;99.90;;;;;;4902867;29;20052;-88
2022/01/10 00:45:17;;;;;;;26.42;7.80;;;1.30;99.90;;;;;;4902246;29;20519;-88
2022/01/10 00:47:45;;;;;;;24.02;7.53;;;1.10;99.90;;;;;;4903667;29;20054;-89
2022/01/10 00:50:11;;;;;;;23.27;7.70;;;1.70;99.90;;;;;;4902967;29;20100;-89
2022/01/10 00:52:37;;;;;;;24.97;7.90;;;0.90;99.90;;;;;;4902334;29;20044;-88
2022/01/10 00:55:03;;;;;;;27.83;8.20;;;0.90;99.90;;;;;;4903049;29;20492;-88
2022/01/10 00:57:28;;;;;;;34.03;8.93;;;1.00;99.90;;;;;;4902233;29;20052;-89
2022/01/10 00:59:54;;;;;;;36.20;8.83;;;0.90;99.90;;;;;;4902017;29;20396;-88
2022/01/10 01:02:21;;;;;;;28.27;8.07;;;1.80;99.90;;;;;;4902599;29;20048;-88
2022/01/10 01:04:47;;;;;;;23.90;7.73;;;0.80;99.90;;;;;;4902515;29;20091;-88
2022/01/10 01:07:12;;;;;;;20.93;8.00;;;2.00;99.90;;;;;;4901818;29;20048;-88
2022/01/10 01:09:41;;;;;;;25.07;8.30;;;1.80;99.90;;;;;;4902626;29;20060;-88
2022/01/10 01:12:17;;;;;;;20.53;8.03;;;0.60;99.90;;;;;;4901783;29;20075;-88
2022/01/10 01:25:07;;;;;;;25.83;8.83;;;0.50;99.90;;;;;;4902573;29;20048;-88
2022/01/10 01:27:33;;;;;;;29.10;8.80;;;0.40;99.90;;;;;;4901478;29;20495;-89
2022/01/10 01:29:58;;;;;;;26.00;8.90;;;0.40;99.90;;;;;;4902541;29;20044;-89
2022/01/10 01:32:24;;;;;;;27.73;9.27;;;0.80;99.90;;;;;;4902593;29;20051;-89
2022/01/10 01:34:50;;;;;;;23.53;9.20;;;1.60;99.90;;;;;;4902549;29;20397;-88
2022/01/10 01:37:16;;;;;;;29.27;9.73;;;0.40;99.90;;;;;;4903657;29;20051;-88
2022/01/10 01:39:42;;;;;;;26.17;9.47;;;0.80;99.90;;;;;;4908442;29;20399;-89
2022/01/10 01:44:51;;;;;;;;;;;0.40;99.90;;;;;;4902639;29;20052;-88
2022/01/10 01:47:17;;;;;;;26.07;9.37;;;0.40;99.90;;;;;;4901139;29;19981;-87
2022/01/10 01:49:43;;;;;;;28.50;10.37;;;1.10;99.90;;;;;;4902284;29;20247;-88
2022/01/10 01:52:08;;;;;;;29.40;10.40;;;1.80;99.90;;;;;;4901602;29;20526;-88
2022/01/10 01:54:34;;;;;;;29.80;10.40;;;0.50;99.90;;;;;;4901155;29;20111;-88
2022/01/10 01:57:00;;;;;;;33.90;10.60;;;1.70;99.90;;;;;;4902339;29;20050;-89
2022/01/10 01:59:26;;;;;;;29.17;10.57;;;0.90;99.90;;;;;;4901012;29;20115;-88
2022/01/10 02:02:00;;;;;;;28.80;10.30;;;0.40;99.90;;;;;;4918155;29;20085;-89
2022/01/10 02:04:38;;;;;;;31.90;9.93;;;0.40;99.90;;;;;;4901728;29;20055;-89
2022/01/10 02:07:07;;;;;;;30.00;11.40;;;0.30;99.90;;;;;;4901768;29;20416;-89
2022/01/10 02:09:39;;;;;;;32.27;10.30;;;0.00;99.90;;;;;;4900648;29;20088;-89
2022/01/10 02:12:14;;;;;;;30.47;10.80;;;0.70;99.90;;;;;;4901432;29;20051;-89
2022/01/10 02:14:43;;;;;;;30.40;10.50;;;-0.10;99.90;;;;;;4901710;29;20055;-89
2022/01/10 02:17:09;;;;;;;26.90;10.80;;;1.30;99.90;;;;;;4900846;29;20377;-88
2022/01/10 02:19:41;;;;;;;28.73;11.53;;;0.00;99.90;;;;;;4901278;29;20090;-88
2022/01/10 02:22:15;;;;;;;41.83;13.90;;;-0.70;99.90;;;;;;4901446;29;20044;-89
2022/01/10 02:24:41;;;;;;;32.20;11.20;;;0.20;99.90;;;;;;4901269;29;20064;-88
2022/01/10 02:27:16;;;;;;;36.63;11.60;;;-0.30;99.90;;;;;;4901148;29;20056;-89
2022/01/10 02:29:54;;;;;;;32.63;11.57;;;-0.50;99.90;;;;;;4900833;29;20054;-89
2022/01/10 02:32:21;;;;;;;30.43;11.13;;;-0.10;99.90;;;;;;4901057;29;20044;-88
2022/01/10 02:34:56;;;;;;;28.97;10.93;;;0.20;99.90;;;;;;4901738;29;20079;-88
2022/01/10 02:37:35;;;;;;;38.73;12.27;;;-0.70;99.90;;;;;;4900192;29;20484;-88
2022/01/10 02:40:06;;;;;;;37.93;12.17;;;-0.50;99.90;;;;;;4900980;29;20048;-89
2022/01/10 02:42:36;;;;;;;35.27;11.67;;;-0.40;99.90;;;;;;4900834;29;20048;-89
2022/01/10 02:45:11;;;;;;;33.03;12.73;;;-0.50;99.90;;;;;;4900617;29;20067;-90
2022/01/10 02:47:37;;;;;;;35.03;12.83;;;-0.70;99.90;;;;;;4907116;29;20070;-88
2022/01/10 02:50:10;;;;;;;35.53;12.83;;;0.30;99.90;;;;;;4901533;29;20052;-89
2022/01/10 02:52:42;;;;;;;48.10;13.20;;;-0.20;99.90;;;;;;4899962;29;20504;-89
2022/01/10 02:55:14;;;;;;;45.40;13.63;;;-0.50;99.90;;;;;;4901000;29;20044;-89
2022/01/10 02:57:40;;;;;;;42.00;14.30;;;-0.60;99.90;;;;;;4899846;29;20051;-89
2022/01/10 03:00:18;;;;;;;39.93;13.93;;;-0.30;99.90;;;;;;4900301;29;20438;-88
2022/01/10 03:02:48;;;;;;;42.90;14.73;;;-0.50;99.90;;;;;;4900281;29;20146;-89
2022/01/10 03:05:14;;;;;;;37.70;14.60;;;-0.20;99.90;;;;;;4898604;29;20059;-89
2022/01/10 03:07:40;;;;;;;43.30;13.73;;;-0.20;99.90;;;;;;4899341;29;20492;-89
2022/01/10 03:10:06;;;;;;;38.40;14.27;;;-0.30;99.90;;;;;;4900377;29;20130;-89
2022/01/10 03:12:32;;;;;;;43.67;14.63;;;-0.30;99.90;;;;;;4899104;29;20052;-89
2022/01/10 03:14:59;;;;;;;41.77;15.23;;;-0.30;99.90;;;;;;4900142;29;20399;-89
2022/01/10 03:17:26;;;;;;;40.20;13.30;;;-0.30;99.90;;;;;;4900539;29;20099;-89
2022/01/10 03:19:51;;;;;;;44.73;14.83;;;-0.30;99.90;;;;;;4900691;29;20495;-88
2022/01/10 03:22:17;;;;;;;35.13;13.23;;;-0.40;99.90;;;;;;4900076;29;20099;-89
2022/01/10 03:24:43;;;;;;;35.80;13.87;;;-0.40;99.90;;;;;;4917111;29;20055;-89
2022/01/10 03:27:09;;;;;;;40.43;15.20;;;-0.10;99.90;;;;;;4899295;29;20079;-88
2022/01/10 03:29:35;;;;;;;37.73;13.80;;;-0.40;99.90;;;;;;4899616;29;20111;-89
2022/01/10 03:32:02;;;;;;;39.63;13.13;;;-0.40;99.90;;;;;;4900102;29;20122;-89
2022/01/10 03:34:28;;;;;;;38.47;13.83;;;-0.40;99.90;;;;;;4899102;29;20527;-88
2022/01/10 03:36:54;;;;;;;41.63;14.27;;;-0.50;99.90;;;;;;4899908;29;20094;-89
2022/01/10 03:39:20;;;;;;;40.70;13.97;;;-0.60;99.90;;;;;;4899938;29;20080;-89
2022/01/10 03:41:45;;;;;;;30.63;12.80;;;-0.10;99.90;;;;;;4899386;29;20075;-88
2022/01/10 03:44:11;;;;;;;40.70;13.37;;;-0.70;99.90;;;;;;4900447;29;20079;-89
2022/01/10 03:46:37;;;;;;;36.50;13.80;;;-0.80;99.90;;;;;;4900217;29;20488;-89
2022/01/10 03:49:04;;;;;;;45.33;13.90;;;-0.80;99.90;;;;;;4900248;29;20123;-89
2022/01/10 03:51:29;;;;;;;46.20;14.53;;;-0.80;99.90;;;;;;4900048;29;20059;-89
2022/01/10 03:53:55;;;;;;;40.07;14.33;;;-0.80;99.90;;;;;;4899593;29;20452;-89
2022/01/10 03:56:22;;;;;;;41.30;14.10;;;-0.70;99.90;;;;;;4906810;29;20056;-89
2022/01/10 03:58:48;;;;;;;41.03;15.07;;;-0.50;99.90;;;;;;4900429;29;20063;-89
2022/01/10 04:01:13;;;;;;;39.50;13.47;;;0.00;99.90;;;;;;4899104;29;20063;-88
2022/01/10 04:03:40;;;;;;;35.13;12.97;;;-0.30;99.90;;;;;;4899882;29;20128;-88
2022/01/10 04:06:06;;;;;;;37.90;14.33;;;-1.00;99.90;;;;;;4899788;29;20063;-89
2022/01/10 04:08:32;;;;;;;43.90;15.37;;;-0.90;99.90;;;;;;4898977;29;20040;-89
2022/01/10 04:10:58;;;;;;;37.30;13.83;;;-0.30;99.90;;;;;;4899598;29;20381;-88
2022/01/10 04:13:24;;;;;;;41.30;15.23;;;-0.90;99.90;;;;;;4899097;29;20072;-89
2022/01/10 04:15:51;;;;;;;38.17;14.33;;;-1.00;99.90;;;;;;4900884;29;20044;-89
2022/01/10 04:18:16;;;;;;;42.77;14.00;;;-1.00;99.90;;;;;;4903833;29;20048;-89
2022/01/10 04:20:43;;;;;;;35.40;14.23;;;0.20;99.90;;;;;;4903621;29;20175;-88
2022/01/10 04:23:10;;;;;;;32.33;13.90;;;-1.10;99.90;;;;;;4904473;29;20507;-89
2022/01/10 04:25:35;;;;;;;39.90;14.23;;;-0.10;99.90;;;;;;4904873;29;20493;-88
2022/01/10 04:28:01;;;;;;;46.93;15.10;;;-1.10;99.90;;;;;;4905443;29;20055;-88
2022/01/10 04:30:27;;;;;;;42.20;14.23;;;-1.10;99.90;;;;;;4902068;29;20044;-88
2022/01/10 04:32:53;;;;;;;43.80;15.27;;;-1.10;99.90;;;;;;4904125;29;20495;-89
2022/01/10 04:35:18;;;;;;;40.87;14.93;;;0.20;99.90;;;;;;4903381;29;20127;-88
2022/01/10 04:37:44;;;;;;;51.30;16.27;;;-0.70;99.90;;;;;;4903048;29;20055;-88
2022/01/10 04:40:11;;;;;;;40.23;14.70;;;0.00;99.90;;;;;;4903618;29;20504;-88
2022/01/10 04:42:36;;;;;;;38.37;14.47;;;-1.20;99.90;;;;;;4903169;29;20052;-88
2022/01/10 04:45:03;;;;;;;42.23;15.30;;;-1.10;99.90;;;;;;4919431;29;20055;-88
2022/01/10 04:47:29;;;;;;;42.63;16.07;;;-1.10;99.90;;;;;;4903282;29;20088;-88
2022/01/10 04:52:27;;;;;;;44.40;15.10;;;-1.20;99.90;;;;;;4919749;29;20111;-88
2022/01/10 04:54:52;;;;;;;42.73;16.10;;;-0.60;99.90;;;;;;4902826;29;20044;-88
2022/01/10 04:57:18;;;;;;;42.87;17.07;;;-0.40;99.90;;;;;;4901913;29;20048;-88
2022/01/10 04:59:43;;;;;;;58.90;18.60;;;-0.10;99.90;;;;;;4902472;29;20052;-88
2022/01/10 05:02:10;;;;;;;53.67;19.20;;;0.20;99.90;;;;;;4918078;29;20078;-88
2022/01/10 05:04:36;;;;;;;54.83;20.03;;;-0.10;99.90;;;;;;4904921;29;20452;-87
2022/01/10 05:07:02;;;;;;;55.87;20.23;;;-0.10;99.90;;;;;;4906063;29;20448;-88
2022/01/10 05:09:28;;;;;;;55.13;18.33;;;-1.00;99.90;;;;;;4902755;29;20052;-88
2022/01/10 05:11:54;;;;;;;56.80;19.53;;;-1.00;99.90;;;;;;4902105;29;20111;-88
2022/01/10 05:14:19;;;;;;;54.67;20.13;;;0.00;99.90;;;;;;4902439;29;20052;-88
2022/01/10 05:16:45;;;;;;;57.53;20.10;;;-1.00;99.90;;;;;;4902609;29;20050;-88
2022/01/10 05:19:11;;;;;;;49.13;20.20;;;-1.00;99.90;;;;;;4901943;29;20044;-88
2022/01/10 05:21:37;;;;;;;60.00;20.40;;;-1.10;99.90;;;;;;4902347;29;20131;-88
2022/01/10 05:24:03;;;;;;;53.20;20.13;;;-1.10;99.90;;;;;;4902444;29;20040;-88
2022/01/10 05:26:28;;;;;;;53.53;20.83;;;-1.10;99.90;;;;;;4901584;29;20052;-88
2022/01/10 05:28:57;;;;;;;58.23;22.03;;;-1.10;99.90;;;;;;4902392;29;20055;-88
2022/01/10 05:31:22;;;;;;;50.87;20.10;;;-1.10;99.90;;;;;;4902088;29;20048;-87
2022/01/10 05:33:49;;;;;;;53.23;20.97;;;-1.10;99.90;;;;;;4901661;29;20040;-88
2022/01/10 05:36:15;;;;;;;47.03;19.87;;;-1.10;99.90;;;;;;4901672;29;20150;-87
2022/01/10 05:38:41;;;;;;;57.33;20.67;;;-1.10;99.90;;;;;;4902202;29;20063;-88
2022/01/10 05:41:06;;;;;;;57.17;21.23;;;-1.10;99.90;;;;;;4901177;29;20048;-87
2022/01/10 05:43:32;;;;;;;48.90;21.27;;;-1.20;99.90;;;;;;4901449;29;20150;-88
2022/01/10 05:45:58;;;;;;;52.83;22.87;;;-0.90;99.90;;;;;;4901819;29;20492;-87
2022/01/10 05:48:30;;;;;;;53.13;23.37;;;-1.20;99.90;;;;;;4900813;29;20044;-87
2022/01/10 05:50:56;;;;;;;63.23;25.80;;;-1.10;99.90;;;;;;4902014;29;20429;-87
2022/01/10 05:53:23;;;;;;;63.70;24.87;;;0.10;99.90;;;;;;4900642;29;20482;-87
2022/01/10 05:55:49;;;;;;;60.93;24.67;;;-0.20;99.90;;;;;;4901258;29;20124;-87
2022/01/10 05:58:15;;;;;;;56.33;23.57;;;-1.10;99.90;;;;;;4901119;29;20143;-87
2022/01/10 06:00:41;;;;;;;58.77;23.53;;;0.20;99.90;;;;;;4900732;29;20056;-87
2022/01/10 06:03:07;;;;;;;50.20;22.77;;;-0.40;99.90;;;;;;4901651;29;20131;-87
2022/01/10 06:05:34;;;;;;;51.10;24.20;;;-1.20;99.90;;;;;;4918054;29;20479;-86
2022/01/10 06:08:02;;;;;;;56.17;24.00;;;-1.30;99.90;;;;;;4900990;29;20047;-86
2022/01/10 06:10:29;;;;;;;53.57;24.20;;;-1.20;99.90;;;;;;4901616;29;20496;-87
2022/01/10 06:12:55;;;;;;;52.97;23.00;;;-1.30;99.90;;;;;;4901972;29;20048;-87
2022/01/10 06:15:21;;;;;;;54.40;23.43;;;-1.30;99.90;;;;;;4905618;29;20503;-87
2022/01/10 06:17:47;;;;;;;57.13;23.63;;;-1.40;99.90;;;;;;4901440;29;20056;-86
2022/01/10 06:20:13;;;;;;;54.60;23.07;;;-1.40;99.90;;;;;;4900930;29;20079;-87
2022/01/10 06:22:39;;;;;;;63.97;26.37;;;-1.50;99.90;;;;;;4900729;29;20040;-87
2022/01/10 06:25:07;;;;;;;52.90;24.70;;;-1.40;99.90;;;;;;4901286;29;20485;-87
2022/01/10 06:27:32;;;;;;;61.33;25.97;;;-1.40;99.90;;;;;;4900694;29;20108;-86
2022/01/10 06:29:58;;;;;;;51.07;24.30;;;-1.30;99.90;;;;;;4900575;29;20404;-86
2022/01/10 06:32:24;;;;;;;56.93;24.93;;;-0.30;99.90;;;;;;4900785;29;20133;-85
2022/01/10 06:34:50;;;;;;;57.67;24.57;;;-1.30;99.90;;;;;;4901156;29;20407;-86
2022/01/10 06:37:16;;;;;;;55.30;23.80;;;-0.10;99.90;;;;;;4899726;29;20056;-84
2022/01/10 06:39:42;;;;;;;51.70;22.40;;;-1.40;99.90;;;;;;4900955;29;20401;-83
2022/01/10 06:42:07;;;;;;;59.30;25.00;;;-1.50;99.90;;;;;;4917808;29;20056;-84
2022/01/10 06:44:33;;;;;;;65.43;25.63;;;-0.10;99.90;;;;;;4916627;29;20411;-84
2022/01/10 06:46:59;;;;;;;53.30;24.17;;;-1.50;99.90;;;;;;4900446;29;20051;-84
2022/01/10 06:49:24;;;;;;;56.67;24.83;;;-1.50;99.90;;;;;;4917315;29;20476;-84
2022/01/10 06:51:50;;;;;;;56.93;25.40;;;-1.50;99.90;;;;;;4900053;29;20056;-84
2022/01/10 06:54:16;;;;;;;55.57;25.77;;;-1.50;99.90;;;;;;4900241;29;20067;-84
2022/01/10 06:56:41;;;;;;;50.73;24.57;;;-1.60;99.90;;;;;;4899699;29;20138;-84
2022/01/10 06:59:08;;;;;;;48.93;24.43;;;-1.60;99.90;;;;;;4900307;29;20063;-84
2022/01/10 07:01:34;;;;;;;53.00;23.80;;;-1.60;99.90;;;;;;4899897;29;20066;-83
2022/01/10 07:04:00;;;;;;;47.17;23.03;;;-1.60;99.90;;;;;;4899751;29;20036;-84
2022/01/10 07:06:25;;;;;;;58.93;25.53;;;-1.60;99.90;;;;;;4917303;29;20547;-85
2022/01/10 07:08:51;;;;;;;68.37;31.70;;;-1.70;99.90;;;;;;4900406;29;20048;-83
2022/01/10 07:11:17;;;;;;;66.87;29.77;;;-1.70;99.90;;;;;;4899372;29;20048;-87
2022/01/10 07:13:43;;;;;;;61.60;27.73;;;-1.70;99.90;;;;;;4901340;29;20036;-87
2022/01/10 07:16:08;;;;;;;61.33;27.13;;;-1.60;99.90;;;;;;4900869;29;20079;-87
2022/01/10 07:18:34;;;;;;;62.03;25.93;;;-1.00;99.90;;;;;;4899212;29;20503;-87
2022/01/10 07:21:00;;;;;;;61.03;26.90;;;-1.60;99.90;;;;;;4900706;29;20059;-87
2022/01/10 07:23:25;;;;;;;60.33;27.40;;;-1.70;99.90;;;;;;4905403;29;20063;-86
2022/01/10 07:25:54;;;;;;;74.43;30.23;;;-1.60;99.90;;;;;;4900180;29;20067;-86
2022/01/10 07:28:20;;;;;;;64.10;28.30;;;-1.60;99.90;;;;;;4899817;29;20147;-87
2022/01/10 07:30:46;;;;;;;65.83;28.03;;;-1.60;99.90;;;;;;4900215;29;20135;-89
2022/01/10 07:33:12;;;;;;;60.43;28.43;;;-1.70;99.90;;;;;;4899295;29;20044;-88
2022/01/10 07:35:37;;;;;;;61.57;26.23;;;-1.40;99.90;;;;;;4916335;29;20096;-87
2022/01/10 07:38:03;;;;;;;68.87;28.60;;;-1.00;99.90;;;;;;4916928;29;20040;-86
2022/01/10 07:40:28;;;;;;;75.67;29.67;;;-1.70;99.90;;;;;;4899175;29;20091;-87
2022/01/10 07:42:54;;;;;;;64.17;30.10;;;-0.60;99.90;;;;;;4899724;29;20135;-87
2022/01/10 07:45:20;;;;;;;69.20;28.33;;;-0.70;99.90;;;;;;4899435;29;20063;-87
2022/01/10 07:47:46;;;;;;;59.00;27.70;;;-2.00;99.90;;;;;;4898841;29;20079;-87
2022/01/10 07:50:22;;;;;;;69.10;27.63;;;-1.90;99.90;;;;;;4899192;29;20096;-87
2022/01/10 07:52:56;;;;;;;66.27;28.40;;;-1.90;99.90;;;;;;4899492;29;20048;-87
2022/01/10 07:55:21;;;;;;;;;;;-2.20;99.90;;;;;;4899724;29;20377;-86
2022/01/10 07:57:47;;;;;;;63.27;26.43;;;-0.90;99.90;;;;;;4899531;29;19986;-86
2022/01/10 08:00:38;;;;;;;59.20;26.37;;;-1.90;99.90;;;;;;4915277;29;20106;-86
2022/01/10 08:03:04;;;;;;;61.87;26.90;;;-1.90;99.90;;;;;;4899527;29;20420;-86
2022/01/10 08:05:29;;;;;;;56.87;27.10;;;-0.50;99.90;;;;;;4898998;29;20048;-86
2022/01/10 08:07:55;;;;;;;58.67;27.40;;;-1.80;99.90;;;;;;4899268;29;20388;-86
2022/01/10 08:10:20;;;;;;;66.97;28.63;;;-1.80;99.90;;;;;;4899223;29;20500;-87
2022/01/10 08:12:46;;;;;;;58.87;26.30;;;-2.20;99.90;;;;;;4899357;29;20091;-86
2022/01/10 08:15:12;;;;;;;62.10;26.97;;;-2.30;99.90;;;;;;4898458;29;20134;-87
2022/01/10 08:17:40;;;;;;;56.83;26.60;;;-1.90;99.90;;;;;;4899527;29;20044;-88
2022/01/10 08:20:09;;;;;;;65.27;28.33;;;-1.30;99.90;;;;;;4899533;29;20119;-88
2022/01/10 08:22:35;;;;;;;57.93;27.10;;;-1.80;99.90;;;;;;4898348;29;20543;-87
2022/01/10 08:25:03;;;;;;;61.50;27.77;;;-2.00;99.90;;;;;;4899220;29;20044;-86
2022/01/10 08:27:29;;;;;;;69.30;29.67;;;-2.40;99.90;;;;;;4898587;29;20107;-87
2022/01/10 08:29:55;;;;;;;59.50;28.60;;;-1.90;99.90;;;;;;4898166;29;20044;-87
2022/01/10 08:32:20;;;;;;;57.37;27.17;;;-0.10;99.90;;;;;;4904790;29;20086;-87
2022/01/10 08:34:46;;;;;;;59.23;28.90;;;-1.80;99.90;;;;;;4899586;29;20484;-87
2022/01/10 08:37:12;;;;;;;66.60;29.40;;;-2.20;99.90;;;;;;4898027;29;20048;-87
2022/01/10 08:39:38;;;;;;;68.17;30.07;;;-1.90;99.90;;;;;;4899103;29;20052;-88
2022/01/10 08:42:07;;;;;;;66.30;29.67;;;-1.40;99.90;;;;;;4898508;29;20056;-87
2022/01/10 08:44:38;;;;;;;70.90;30.57;;;-1.80;99.90;;;;;;4891707;29;20191;-88
2022/01/10 08:47:10;;;;;;;64.50;28.80;;;-2.00;99.90;;;;;;4888837;29;20105;-88
2022/01/10 08:49:36;;;;;;;71.90;31.93;;;-1.80;99.90;;;;;;4892942;29;20052;-90
2022/01/10 08:52:11;;;;;;;67.30;30.43;;;-1.80;99.90;;;;;;4899366;29;20056;-89
2022/01/10 08:54:36;;;;;;;66.97;29.47;;;-2.00;99.90;;;;;;4899456;29;20569;-88
2022/01/10 08:57:02;;;;;;;74.63;31.57;;;-1.90;99.90;;;;;;4898207;29;20139;-87
2022/01/10 08:59:28;;;;;;;71.10;30.73;;;-1.60;99.90;;;;;;4898563;29;20404;-87
2022/01/10 09:02:11;;;;;;;85.97;37.90;;;-1.60;99.90;;;;;;4901338;29;20075;-87
2022/01/10 09:04:38;;;;;;;83.27;38.37;;;-1.60;99.90;;;;;;4902005;29;20535;-86
2022/01/10 09:07:08;;;;;;;84.13;38.77;;;-1.60;99.90;;;;;;4902542;29;20044;-89
2022/01/10 09:09:43;;;;;;;97.43;42.90;;;0.00;99.90;;;;;;4901928;29;20048;-85
2022/01/10 09:12:18;;;;;;;110.43;43.67;;;-1.50;99.90;;;;;;4901465;29;20059;-86
2022/01/10 09:14:46;;;;;;;111.73;44.07;;;-1.10;99.90;;;;;;4893826;29;20473;-86
2022/01/10 09:17:30;;;;;;;104.37;42.50;;;-0.40;99.90;;;;;;4893319;29;20076;-85
2022/01/10 09:19:58;;;;;;;109.22;43.05;;;-0.80;99.90;;;;;;4901718;29;20055;-88
2022/01/10 09:22:30;;;;;;;101.33;42.73;;;-1.10;99.90;;;;;;4902102;29;20055;-88
2022/01/10 09:25:01;;;;;;;111.03;42.00;;;-1.10;99.90;;;;;;4901564;29;20051;-86
2022/01/10 09:27:27;;;;;;;100.33;43.23;;;0.60;99.90;;;;;;4902052;29;20044;-86
2022/01/10 09:29:56;;;;;;;113.20;45.67;;;-0.80;99.90;;;;;;4902262;29;20403;-88
2022/01/10 09:32:24;;;;;;;107.97;43.73;;;-0.60;99.90;;;;;;4901173;29;20547;-86
2022/01/10 09:34:56;;;;;;;121.03;47.30;;;-1.20;99.90;;;;;;4901803;29;20404;-86
2022/01/10 09:37:28;;;;;;;111.33;44.03;;;-0.70;99.90;;;;;;4901397;29;20500;-86
2022/01/10 09:39:59;;;;;;;111.30;47.40;;;-0.20;99.90;;;;;;4903646;29;20076;-87
2022/01/10 09:42:28;;;;;;;105.13;46.20;;;-0.20;99.90;;;;;;4904078;29;20433;-86
2022/01/10 09:45:01;;;;;;;115.47;46.03;;;-0.10;99.90;;;;;;4902039;29;20058;-86
2022/01/10 09:47:26;;;;;;;112.83;47.83;;;0.20;99.90;;;;;;4901020;29;20048;-86
2022/01/10 09:49:52;;;;;;;116.23;48.83;;;-0.20;99.90;;;;;;4901785;29;20048;-86
2022/01/10 09:52:18;;;;;;;133.17;54.63;;;0.00;99.90;;;;;;4901556;29;20076;-86
2022/01/10 09:54:43;;;;;;;122.53;50.37;;;0.10;99.90;;;;;;4900921;29;20056;-86
2022/01/10 09:57:10;;;;;;;125.20;50.33;;;0.20;99.90;;;;;;4901520;29;20532;-86
2022/01/10 10:00:01;;;;;;;110.70;49.60;;;0.30;99.90;;;;;;4900470;29;20052;-86
2022/01/10 10:02:31;;;;;;;105.80;47.27;;;0.30;99.90;;;;;;4914087;29;20072;-86
2022/01/10 10:04:57;;;;;;;107.97;48.87;;;0.50;99.90;;;;;;4882911;29;20053;-86
2022/01/10 10:07:24;;;;;;;104.10;46.83;;;0.60;99.90;;;;;;4881856;29;20045;-86
2022/01/10 10:09:50;;;;;;;103.73;47.33;;;0.70;99.90;;;;;;4899157;29;20122;-86
2022/01/10 10:12:16;;;;;;;110.17;48.83;;;0.80;99.90;;;;;;4901026;29;20484;-87
2022/01/10 10:14:45;;;;;;;108.93;49.10;;;0.80;99.90;;;;;;4900310;29;20389;-87
2022/01/10 10:17:17;;;;;;;114.87;50.93;;;0.80;99.90;;;;;;4918313;29;20067;-86
2022/01/10 10:19:50;;;;;;;107.80;50.10;;;0.80;99.90;;;;;;4901172;29;20052;-87
2022/01/10 10:22:16;;;;;;;100.45;46.35;;;1.00;99.90;;;;;;4885002;29;20054;-86
2022/01/10 10:24:45;;;;;;;117.63;49.73;;;1.00;99.90;;;;;;4900862;29;20048;-87
2022/01/10 10:27:14;;;;;;;105.73;48.30;;;1.00;99.90;;;;;;4907767;23;20051;-87
2022/01/10 10:29:41;;;;;;;119.97;56.07;;;1.30;99.90;;;;;;4900215;29;20052;-88
2022/01/10 10:32:09;;;;;;;112.77;52.87;;;1.40;99.90;;;;;;4900707;29;20044;-89
2022/01/10 10:35:04;;;;;;;108.10;50.87;;;1.40;99.90;;;;;;4900777;29;20058;-91
2022/01/10 10:37:43;;;;;;;104.13;51.00;;;1.10;99.90;;;;;;4903135;29;20048;-90
2022/01/10 10:40:13;;;;;;;109.75;51.63;;;1.30;99.90;;;;;;4903582;29;20135;-89
2022/01/10 10:42:50;;;;;;;101.73;48.83;;;1.50;99.90;;;;;;4890881;29;20076;-87
2022/01/10 10:45:16;;;;;;;99.40;49.20;;;0.80;99.90;;;;;;4887365;29;20062;-87
2022/01/10 10:47:51;;;;;;;106.60;50.93;;;2.10;99.90;;;;;;4888988;29;20040;-87
2022/01/10 10:50:17;;;;;;;95.57;47.53;;;1.70;99.90;;;;;;4895261;29;20048;-87
2022/01/10 10:52:45;;;;;;;93.20;48.67;;;2.00;99.90;;;;;;4890927;29;20114;-88
2022/01/10 10:55:13;;;;;;;98.53;47.23;;;2.00;99.90;;;;;;4888900;29;20048;-87
2022/01/10 10:57:50;;;;;;;84.93;45.07;;;2.20;99.90;;;;;;4888920;29;20065;-88
2022/01/10 11:00:16;;;;;;;85.53;45.67;;;3.90;99.90;;;;;;4886279;29;20412;-89
2022/01/10 11:02:47;;;;;;;83.67;45.87;;;2.40;99.90;;;;;;4889284;29;20100;-88
2022/01/10 11:05:13;;;;;;;82.00;44.67;;;4.80;99.90;;;;;;4891941;29;20457;-90
2022/01/10 11:08:08;;;;;;;68.43;40.07;;;3.70;99.90;;;;;;4906962;29;20412;-90
2022/01/10 11:10:34;;;;;;;68.83;40.03;;;2.60;99.90;;;;;;4890292;29;20051;-90
2022/01/10 11:13:01;;;;;;;69.43;39.63;;;2.70;99.90;;;;;;4917437;29;20052;-89
2022/01/10 11:15:31;;;;;;;61.77;37.33;;;2.70;99.90;;;;;;4900145;29;20047;-89
2022/01/10 11:18:09;;;;;;;56.23;35.90;;;3.20;99.90;;;;;;4902288;29;20056;-89
2022/01/10 11:21:02;;;;;;;57.70;34.43;;;3.10;99.90;;;;;;4901834;29;20442;-89
2022/01/10 11:23:43;;;;;;;51.97;32.57;;;3.20;99.90;;;;;;4898327;29;20564;-90
2022/01/10 11:26:09;;;;;;;51.47;31.30;;;4.40;99.90;;;;;;4899876;29;20044;-91
2022/01/10 11:28:52;;;;;;;50.03;31.00;;;3.90;99.90;;;;;;5211889;23;20048;-89
2022/01/10 11:31:36;;;;;;;47.43;29.13;;;3.40;99.90;;;;;;4897011;29;20091;-90
2022/01/10 11:34:05;;;;;;;45.03;29.77;;;3.30;99.90;;;;;;4897103;29;20396;-91
2022/01/10 11:36:30;;;;;;;50.60;27.90;;;3.50;99.90;;;;;;4896689;29;20044;-90
2022/01/10 11:39:10;;;;;;;42.83;27.03;;;3.70;99.90;;;;;;4895920;29;20099;-91
2022/01/10 11:41:36;;;;;;;43.63;26.53;;;3.70;99.90;;;;;;4891001;29;20087;-91
2022/01/10 11:44:18;;;;;;;43.27;26.80;;;5.10;99.90;;;;;;4896957;29;20135;-91
2022/01/10 11:46:52;;;;;;;40.27;26.57;;;3.60;99.90;;;;;;4896462;29;20113;-91
2022/01/10 11:50:15;;;;;;;48.22;27.92;;;3.70;99.90;;;;;;4897564;29;20369;-92
2022/01/10 11:53:09;;;;;;;42.70;25.57;;;5.40;99.90;;;;;;4882566;23;20056;-94
2022/01/10 11:56:27;;;;;;;;;;;;;;;;;;;;;
2022/01/10 11:59:39;;;;;;;43.33;26.77;;;4.40;99.90;;;;;;4928860;23;20116;-93
2022/01/10 12:02:11;;;;;;;44.07;25.90;;;5.10;99.90;;;;;;4900754;29;20176;-94
2022/01/10 12:05:00;;;;;;;44.53;25.73;;;4.00;99.90;;;;;;4899799;29;20098;-90
2022/01/10 12:10:20;;;;;;;46.00;28.20;;;4.70;99.90;;;;;;4916210;23;20089;-91
2022/01/10 12:13:14;;;;;;;41.37;23.80;;;4.60;99.90;;;;;;4904348;29;20041;-90
2022/01/10 12:16:13;;;;;;;53.37;35.80;;;6.30;99.90;;;;;;4897350;29;20568;-91
2022/01/10 12:19:23;;;;;;;35.37;23.33;;;4.60;99.90;;;;;;4896625;29;20044;-91
2022/01/10 12:21:52;;;;;;;38.50;22.33;;;4.30;99.90;;;;;;4839485;29;20053;-91
2022/01/10 12:24:24;;;;;;;38.80;22.70;;;5.90;99.90;;;;;;4896490;29;20481;-91
2022/01/10 12:27:03;;;;;;;34.03;21.87;;;5.00;99.90;;;;;;4896639;29;20135;-92
2022/01/10 12:29:35;;;;;;;37.63;24.27;;;4.80;99.90;;;;;;4896063;29;20112;-92
2022/01/10 12:32:10;;;;;;;37.67;22.30;;;4.50;99.90;;;;;;4895213;29;20052;-93
2022/01/10 12:34:38;;;;;;;35.50;22.47;;;3.60;99.90;;;;;;4896432;29;20123;-90
2022/01/10 12:37:04;;;;;;;33.50;21.87;;;6.50;99.90;;;;;;4900605;29;20091;-92
2022/01/10 12:39:37;;;;;;;38.50;24.13;;;5.50;99.90;;;;;;4912030;29;20044;-91
2022/01/10 12:42:03;;;;;;;35.63;21.03;;;4.60;99.90;;;;;;4899107;29;20080;-92
2022/01/10 12:44:38;;;;;;;38.03;21.80;;;4.80;99.90;;;;;;4900182;29;20049;-92
2022/01/10 12:47:18;;;;;;;30.97;20.97;;;4.60;99.90;;;;;;4900429;29;20044;-92
2022/01/10 12:49:51;;;;;;;35.80;22.40;;;6.20;99.90;;;;;;5001508;23;20053;-91
2022/01/10 12:52:22;;;;;;;36.53;20.23;;;6.60;99.90;;;;;;4904168;29;20055;-90
2022/01/10 12:54:57;;;;;;;33.67;22.47;;;6.20;99.90;;;;;;4902998;29;20096;-92
2022/01/10 12:57:23;;;;;;;35.03;18.20;;;4.70;99.90;;;;;;4899003;29;20119;-92
2022/01/10 12:59:49;;;;;;;27.80;16.60;;;6.40;99.90;;;;;;4900299;29;20049;-91
2022/01/10 13:02:17;;;;;;;33.80;18.23;;;;;;;;;;4899664;29;20045;-91